Time;durP1;ratioP1;P1;durP2;ratioP2;P2;SDS_P1;SDS_P2;PMS_P1;PMS_P2;Temp;Humidity;BMP_temperature;BMP_pressure;BME280_temperature;BME280_humidity;BME280_pressure;Samples;Min_cycle;Max_cycle;Signal;HPM_P1;HPM_P2
2021/05/01 00:00:21;;;;;;;16.75;8.98;;;;;;;;;;4976081;28;20076;-67
2021/05/01 00:02:46;;;;;;;17.25;8.10;;;;;;;;;;4992614;28;20029;-68
2021/05/01 00:05:12;;;;;;;18.05;8.77;;;;;;;;;;4978738;28;20026;-67
2021/05/01 00:07:39;;;;;;;17.20;8.73;;;;;;;;;;4974029;28;20031;-67
2021/05/01 00:10:06;;;;;;;23.75;9.23;;;;;;;;;;4974352;28;20031;-67
2021/05/01 00:12:32;;;;;;;15.48;8.75;;;;;;;;;;4985447;28;20061;-67
2021/05/01 00:14:58;;;;;;;15.93;8.07;;;;;;;;;;4974872;28;20377;-67
2021/05/01 00:17:24;;;;;;;12.35;8.48;;;;;;;;;;4977281;28;20038;-67
2021/05/01 00:19:50;;;;;;;18.65;9.48;;;;;;;;;;4983661;28;20161;-67
2021/05/01 00:22:16;;;;;;;18.10;8.52;;;;;;;;;;4985740;28;20023;-67
2021/05/01 00:24:42;;;;;;;15.35;8.95;;;;;;;;;;4989205;28;20034;-67
2021/05/01 00:27:08;;;;;;;19.08;8.52;;;;;;;;;;4973886;28;20321;-67
2021/05/01 00:29:34;;;;;;;21.23;8.85;;;;;;;;;;4977080;28;20031;-67
2021/05/01 00:32:00;;;;;;;17.63;10.15;;;;;;;;;;4973475;28;20027;-67
2021/05/01 00:34:26;;;;;;;16.40;8.90;;;;;;;;;;4982142;28;20041;-67
2021/05/01 00:36:52;;;;;;;16.70;9.75;;;;;;;;;;4993410;28;20057;-67
2021/05/01 00:39:18;;;;;;;13.85;8.75;;;;;;;;;;4978349;28;20476;-68
2021/05/01 00:41:45;;;;;;;13.98;8.40;;;;;;;;;;4992851;28;20058;-67
2021/05/01 00:44:12;;;;;;;17.90;9.32;;;;;;;;;;4975103;28;20440;-67
2021/05/01 00:46:38;;;;;;;13.30;8.93;;;;;;;;;;4975617;28;20084;-67
2021/05/01 00:49:05;;;;;;;24.83;9.57;;;;;;;;;;4974029;28;20035;-67
2021/05/01 00:51:32;;;;;;;18.38;9.27;;;;;;;;;;4973138;28;20034;-67
2021/05/01 00:53:58;;;;;;;15.30;9.90;;;;;;;;;;4977259;28;20034;-67
2021/05/01 00:56:24;;;;;;;14.80;9.00;;;;;;;;;;4978600;28;20057;-67
2021/05/01 00:58:50;;;;;;;15.85;10.25;;;;;;;;;;4976137;28;20027;-68
2021/05/01 01:01:19;;;;;;;15.20;10.20;;;;;;;;;;4980379;28;20023;-67
2021/05/01 01:03:46;;;;;;;19.40;10.47;;;;;;;;;;4977231;28;20074;-67
2021/05/01 01:06:13;;;;;;;17.05;10.48;;;;;;;;;;4980284;28;20426;-67
2021/05/01 01:08:39;;;;;;;19.85;12.07;;;;;;;;;;4977552;28;20034;-67
2021/05/01 01:11:06;;;;;;;22.13;12.38;;;;;;;;;;4975667;28;20031;-67
2021/05/01 01:13:32;;;;;;;18.55;10.63;;;;;;;;;;4978511;28;20042;-67
2021/05/01 01:15:58;;;;;;;23.08;12.00;;;;;;;;;;4975991;28;20056;-67
2021/05/01 01:18:24;;;;;;;18.33;10.60;;;;;;;;;;4978700;28;20034;-67
2021/05/01 01:20:50;;;;;;;16.38;10.80;;;;;;;;;;4978920;28;20045;-67
2021/05/01 01:23:16;;;;;;;17.30;10.05;;;;;;;;;;4977766;28;20465;-67
2021/05/01 01:25:42;;;;;;;20.42;10.05;;;;;;;;;;4977366;28;20038;-67
2021/05/01 01:28:08;;;;;;;20.17;11.68;;;;;;;;;;4996548;28;20039;-68
2021/05/01 01:30:35;;;;;;;16.52;10.57;;;;;;;;;;4977244;28;20102;-67
2021/05/01 01:33:04;;;;;;;18.17;11.02;;;;;;;;;;4977380;28;20208;-67
2021/05/01 01:35:30;;;;;;;24.75;10.55;;;;;;;;;;4986566;28;20057;-67
2021/05/01 01:37:56;;;;;;;18.17;9.95;;;;;;;;;;4977153;28;20496;-67
2021/05/01 01:40:23;;;;;;;18.52;10.10;;;;;;;;;;4998172;28;20041;-67
2021/05/01 01:42:49;;;;;;;19.20;10.02;;;;;;;;;;4992367;28;20034;-67
2021/05/01 01:45:18;;;;;;;19.02;10.52;;;;;;;;;;4987695;28;20027;-67
2021/05/01 01:47:44;;;;;;;16.20;9.88;;;;;;;;;;5003402;28;20030;-68
2021/05/01 01:50:12;;;;;;;16.05;9.55;;;;;;;;;;5007628;28;20042;-69
2021/05/01 01:52:38;;;;;;;15.70;9.63;;;;;;;;;;5016761;28;20030;-68
2021/05/01 01:55:10;;;;;;;15.07;8.55;;;;;;;;;;4996827;28;20030;-67
2021/05/01 01:57:35;;;;;;;14.52;9.48;;;;;;;;;;4985838;28;20023;-68
2021/05/01 02:00:02;;;;;;;15.13;9.45;;;;;;;;;;5000062;28;20030;-67
2021/05/01 02:02:29;;;;;;;18.77;10.00;;;;;;;;;;4993109;28;20030;-67
2021/05/01 02:04:55;;;;;;;14.30;9.38;;;;;;;;;;4999363;28;20021;-67
2021/05/01 02:07:21;;;;;;;14.13;9.43;;;;;;;;;;4992409;28;20483;-67
2021/05/01 02:09:47;;;;;;;16.20;9.25;;;;;;;;;;4999530;28;20026;-67
2021/05/01 02:12:13;;;;;;;19.15;9.88;;;;;;;;;;4992649;28;20036;-67
2021/05/01 02:14:39;;;;;;;14.68;8.38;;;;;;;;;;4992095;28;20468;-67
2021/05/01 02:17:05;;;;;;;16.60;9.57;;;;;;;;;;5007527;28;20062;-67
2021/05/01 02:19:31;;;;;;;15.93;9.55;;;;;;;;;;4997397;28;20069;-68
2021/05/01 02:21:57;;;;;;;12.13;8.68;;;;;;;;;;4995257;28;22198;-67
2021/05/01 02:24:23;;;;;;;13.30;9.23;;;;;;;;;;4990188;28;20372;-67
2021/05/01 02:26:49;;;;;;;19.13;9.75;;;;;;;;;;4989289;28;20025;-67
2021/05/01 02:29:15;;;;;;;11.25;8.10;;;;;;;;;;4995655;28;20026;-67
2021/05/01 02:31:41;;;;;;;13.05;9.07;;;;;;;;;;4990968;28;20084;-67
2021/05/01 02:34:07;;;;;;;16.45;9.40;;;;;;;;;;4991400;28;20436;-67
2021/05/01 02:36:33;;;;;;;15.32;8.43;;;;;;;;;;4987753;28;20096;-67
2021/05/01 02:38:59;;;;;;;19.33;9.02;;;;;;;;;;4998930;28;20567;-67
2021/05/01 02:41:25;;;;;;;14.90;9.18;;;;;;;;;;4988323;28;20106;-67
2021/05/01 02:43:51;;;;;;;14.35;9.43;;;;;;;;;;4986339;28;20023;-67
2021/05/01 02:46:17;;;;;;;19.83;10.15;;;;;;;;;;4988905;28;20029;-67
2021/05/01 02:48:43;;;;;;;14.25;10.45;;;;;;;;;;5001121;28;20033;-67
2021/05/01 02:51:09;;;;;;;15.45;10.35;;;;;;;;;;4986834;28;20030;-67
2021/05/01 02:53:35;;;;;;;15.10;9.23;;;;;;;;;;4987681;28;20468;-67
2021/05/01 02:56:01;;;;;;;13.55;9.32;;;;;;;;;;4984911;28;20054;-67
2021/05/01 02:58:27;;;;;;;20.23;9.70;;;;;;;;;;4991764;28;20026;-67
2021/05/01 03:00:55;;;;;;;21.42;9.90;;;;;;;;;;4986280;28;20049;-67
2021/05/01 03:03:20;;;;;;;20.25;9.82;;;;;;;;;;4999663;28;20073;-67
2021/05/01 03:05:46;;;;;;;15.68;10.38;;;;;;;;;;4994899;28;20523;-67
2021/05/01 03:08:12;;;;;;;17.13;9.95;;;;;;;;;;4991794;28;20026;-67
2021/05/01 03:10:38;;;;;;;18.38;10.32;;;;;;;;;;4993226;28;20049;-67
2021/05/01 03:13:04;;;;;;;15.57;9.60;;;;;;;;;;4985809;28;20465;-67
2021/05/01 03:15:30;;;;;;;16.23;9.40;;;;;;;;;;4990865;28;20439;-67
2021/05/01 03:17:56;;;;;;;14.23;9.20;;;;;;;;;;4989577;28;20042;-67
2021/05/01 03:20:22;;;;;;;14.65;9.30;;;;;;;;;;4991705;28;20022;-67
2021/05/01 03:22:49;;;;;;;16.65;9.32;;;;;;;;;;4996818;28;20480;-67
2021/05/01 03:25:15;;;;;;;14.30;9.80;;;;;;;;;;4989847;28;20435;-67
2021/05/01 03:27:42;;;;;;;17.25;9.98;;;;;;;;;;4985566;28;20037;-67
2021/05/01 03:30:09;;;;;;;18.92;11.48;;;;;;;;;;4996055;28;20080;-67
2021/05/01 03:32:35;;;;;;;16.23;9.10;;;;;;;;;;4986527;28;20115;-67
2021/05/01 03:35:02;;;;;;;14.60;9.35;;;;;;;;;;4986279;28;20399;-67
2021/05/01 03:37:28;;;;;;;17.95;10.77;;;;;;;;;;4990451;28;21726;-67
2021/05/01 03:39:53;;;;;;;19.58;11.23;;;;;;;;;;4989647;28;20022;-67
2021/05/01 03:42:19;;;;;;;20.50;11.73;;;;;;;;;;4990196;28;20476;-67
2021/05/01 03:44:45;;;;;;;20.75;11.50;;;;;;;;;;4990632;28;20029;-67
2021/05/01 03:47:11;;;;;;;20.25;11.68;;;;;;;;;;4992065;28;20062;-67
2021/05/01 03:49:37;;;;;;;16.67;11.23;;;;;;;;;;4986516;28;20125;-67
2021/05/01 03:52:04;;;;;;;20.08;12.38;;;;;;;;;;4988770;28;20392;-67
2021/05/01 03:54:30;;;;;;;18.88;12.82;;;;;;;;;;4987448;28;20039;-67
2021/05/01 03:56:56;;;;;;;22.10;14.02;;;;;;;;;;4985946;28;20065;-67
2021/05/01 03:59:22;;;;;;;22.90;12.77;;;;;;;;;;4987829;28;20065;-67
2021/05/01 04:01:49;;;;;;;20.92;12.77;;;;;;;;;;4986151;28;20101;-67
2021/05/01 04:04:15;;;;;;;20.25;13.68;;;;;;;;;;4987839;28;20030;-67
2021/05/01 04:06:41;;;;;;;23.50;13.50;;;;;;;;;;4985909;28;20102;-67
2021/05/01 04:09:07;;;;;;;22.23;14.48;;;;;;;;;;4988109;28;20030;-67
2021/05/01 04:11:33;;;;;;;24.40;14.63;;;;;;;;;;4981087;28;20023;-67
2021/05/01 04:13:59;;;;;;;22.30;14.50;;;;;;;;;;4986565;28;20030;-67
2021/05/01 04:16:25;;;;;;;29.88;17.40;;;;;;;;;;4995471;28;20026;-67
2021/05/01 04:18:51;;;;;;;25.90;16.85;;;;;;;;;;4986018;28;20031;-67
2021/05/01 04:21:17;;;;;;;24.05;15.48;;;;;;;;;;4989017;28;20033;-67
2021/05/01 04:23:43;;;;;;;28.10;17.05;;;;;;;;;;4997578;28;20030;-67
2021/05/01 04:26:10;;;;;;;24.35;16.17;;;;;;;;;;4990283;28;20022;-67
2021/05/01 04:28:36;;;;;;;31.00;15.63;;;;;;;;;;5006137;28;20045;-67
2021/05/01 04:31:02;;;;;;;30.55;16.08;;;;;;;;;;4994298;28;20034;-67
2021/05/01 04:33:28;;;;;;;22.95;15.95;;;;;;;;;;4993035;28;20037;-67
2021/05/01 04:35:54;;;;;;;22.60;14.50;;;;;;;;;;4989483;28;20031;-67
2021/05/01 04:38:21;;;;;;;24.98;14.60;;;;;;;;;;4993304;28;20034;-67
2021/05/01 04:40:47;;;;;;;24.05;15.55;;;;;;;;;;4998445;28;20376;-67
2021/05/01 04:43:13;;;;;;;23.95;14.43;;;;;;;;;;4989031;28;20038;-67
2021/05/01 04:45:39;;;;;;;22.02;13.95;;;;;;;;;;4994287;28;20045;-67
2021/05/01 04:48:07;;;;;;;17.80;12.65;;;;;;;;;;4994689;28;20492;-67
2021/05/01 04:50:33;;;;;;;18.42;12.10;;;;;;;;;;4991811;28;20029;-67
2021/05/01 04:52:59;;;;;;;21.00;12.43;;;;;;;;;;4990532;28;20031;-67
2021/05/01 04:55:26;;;;;;;21.23;10.90;;;;;;;;;;4997341;28;20030;-67
2021/05/01 04:57:52;;;;;;;18.05;10.00;;;;;;;;;;5001474;28;20070;-67
2021/05/01 05:00:19;;;;;;;16.85;8.57;;;;;;;;;;4993852;28;20030;-68
2021/05/01 05:02:46;;;;;;;15.77;8.90;;;;;;;;;;4993690;28;20072;-67
2021/05/01 05:05:12;;;;;;;18.10;8.57;;;;;;;;;;4991927;28;20061;-67
2021/05/01 05:07:38;;;;;;;18.02;8.15;;;;;;;;;;4993009;28;20431;-67
2021/05/01 05:10:06;;;;;;;15.75;7.75;;;;;;;;;;4993159;28;20034;-67
2021/05/01 05:12:32;;;;;;;12.25;7.22;;;;;;;;;;4992309;28;20581;-68
2021/05/01 05:14:58;;;;;;;11.15;7.28;;;;;;;;;;4992638;28;20026;-68
2021/05/01 05:17:24;;;;;;;10.93;6.88;;;;;;;;;;4996096;28;20029;-67
2021/05/01 05:19:49;;;;;;;14.00;6.68;;;;;;;;;;4985213;28;20030;-68
2021/05/01 05:22:15;;;;;;;9.18;5.97;;;;;;;;;;4998185;28;20030;-68
2021/05/01 05:24:42;;;;;;;10.30;6.28;;;;;;;;;;4993510;28;20061;-68
2021/05/01 05:27:08;;;;;;;7.85;4.75;;;;;;;;;;4984090;28;20396;-68
2021/05/01 05:29:34;;;;;;;6.88;4.60;;;;;;;;;;4992763;28;20496;-68
2021/05/01 05:32:00;;;;;;;11.75;4.85;;;;;;;;;;4992939;28;20019;-68
2021/05/01 05:34:26;;;;;;;10.05;5.05;;;;;;;;;;4994152;28;20021;-68
2021/05/01 05:36:52;;;;;;;9.13;5.70;;;;;;;;;;5001487;28;20080;-68
2021/05/01 05:39:18;;;;;;;8.43;4.75;;;;;;;;;;4987578;28;20428;-68
2021/05/01 05:41:44;;;;;;;11.70;5.28;;;;;;;;;;4998550;28;20022;-68
2021/05/01 05:44:11;;;;;;;13.23;5.13;;;;;;;;;;4996402;28;20030;-68
2021/05/01 05:46:37;;;;;;;13.70;5.13;;;;;;;;;;5002390;28;20465;-68
2021/05/01 05:49:03;;;;;;;8.57;4.57;;;;;;;;;;4996148;28;20506;-68
2021/05/01 05:51:29;;;;;;;6.25;4.18;;;;;;;;;;4985774;28;20386;-68
2021/05/01 05:53:55;;;;;;;8.65;4.03;;;;;;;;;;4991489;28;20022;-68
2021/05/01 05:56:22;;;;;;;7.75;3.08;;;;;;;;;;4992386;28;20042;-68
2021/05/01 05:58:48;;;;;;;9.77;3.80;;;;;;;;;;4989787;28;20018;-68
2021/05/01 06:01:14;;;;;;;7.20;3.45;;;;;;;;;;4992271;28;20033;-68
2021/05/01 06:03:41;;;;;;;5.38;3.58;;;;;;;;;;4990341;28;20022;-68
2021/05/01 06:06:16;;;;;;;8.63;3.40;;;;;;;;;;4992138;28;20080;-68
2021/05/01 06:08:42;;;;;;;9.38;3.10;;;;;;;;;;4992850;28;20034;-68
2021/05/01 06:11:10;;;;;;;6.25;2.85;;;;;;;;;;4990953;28;20026;-68
2021/05/01 06:13:36;;;;;;;11.80;3.35;;;;;;;;;;4985771;28;20029;-68
2021/05/01 06:16:03;;;;;;;7.07;2.78;;;;;;;;;;5000537;28;20026;-68
2021/05/01 06:18:34;;;;;;;5.82;2.83;;;;;;;;;;4989585;28;20469;-68
2021/05/01 06:21:00;;;;;;;5.93;2.75;;;;;;;;;;4997276;28;20476;-68
2021/05/01 06:23:25;;;;;;;10.07;3.00;;;;;;;;;;4992268;28;20091;-68
2021/05/01 06:25:52;;;;;;;7.53;2.60;;;;;;;;;;4985687;28;20027;-68
2021/05/01 06:28:18;;;;;;;6.35;3.00;;;;;;;;;;4999650;28;20022;-68
2021/05/01 06:30:44;;;;;;;13.50;3.10;;;;;;;;;;4988099;28;20068;-68
2021/05/01 06:33:11;;;;;;;8.52;3.25;;;;;;;;;;4982597;28;20575;-68
2021/05/01 06:35:38;;;;;;;8.43;2.72;;;;;;;;;;4990670;28;20022;-68
2021/05/01 06:38:05;;;;;;;6.03;2.40;;;;;;;;;;5001266;28;20030;-68
2021/05/01 06:40:38;;;;;;;5.07;2.50;;;;;;;;;;4991814;28;20404;-67
2021/05/01 06:43:11;;;;;;;7.82;2.67;;;;;;;;;;4984930;28;20109;-68
2021/05/01 06:45:39;;;;;;;7.32;2.63;;;;;;;;;;4996754;28;20048;-68
2021/05/01 06:48:06;;;;;;;6.03;3.08;;;;;;;;;;4987587;28;20137;-67
2021/05/01 06:50:32;;;;;;;12.00;2.83;;;;;;;;;;4983224;28;20109;-68
2021/05/01 06:52:59;;;;;;;8.70;2.35;;;;;;;;;;4985667;28;20424;-68
2021/05/01 06:55:30;;;;;;;8.88;2.95;;;;;;;;;;4991776;28;20045;-68
2021/05/01 06:57:57;;;;;;;6.82;2.17;;;;;;;;;;5003695;28;20026;-68
2021/05/01 07:00:26;;;;;;;6.10;2.30;;;;;;;;;;4993512;28;20460;-68
2021/05/01 07:02:55;;;;;;;8.02;3.33;;;;;;;;;;4990861;28;20033;-68
2021/05/01 07:05:22;;;;;;;8.43;2.90;;;;;;;;;;4997961;28;20030;-68
2021/05/01 07:07:48;;;;;;;7.50;2.40;;;;;;;;;;4989546;28;20073;-68
2021/05/01 07:10:15;;;;;;;7.63;1.85;;;;;;;;;;4991743;28;20023;-68
2021/05/01 07:12:42;;;;;;;5.60;2.22;;;;;;;;;;4985359;28;20022;-68
2021/05/01 07:15:10;;;;;;;7.35;2.65;;;;;;;;;;4974852;28;20068;-68
2021/05/01 07:17:36;;;;;;;5.18;2.17;;;;;;;;;;4975466;28;20125;-68
2021/05/01 07:20:03;;;;;;;7.07;2.15;;;;;;;;;;4974498;28;20150;-68
2021/05/01 07:22:29;;;;;;;9.20;2.90;;;;;;;;;;4975729;28;20126;-69
2021/05/01 07:24:56;;;;;;;7.18;3.00;;;;;;;;;;4978765;28;20098;-67
2021/05/01 07:27:27;;;;;;;6.95;2.60;;;;;;;;;;4974849;28;20120;-67
2021/05/01 07:29:56;;;;;;;8.98;3.30;;;;;;;;;;4976254;28;20033;-67
2021/05/01 07:32:23;;;;;;;9.77;3.70;;;;;;;;;;4979182;28;20496;-67
2021/05/01 07:34:51;;;;;;;8.13;3.05;;;;;;;;;;4981639;28;20030;-67
2021/05/01 07:37:23;;;;;;;9.55;3.15;;;;;;;;;;4976000;28;20456;-67
2021/05/01 07:39:51;;;;;;;9.18;2.85;;;;;;;;;;5007694;28;20023;-67
2021/05/01 07:42:18;;;;;;;9.65;3.50;;;;;;;;;;4976990;28;20073;-67
2021/05/01 07:44:45;;;;;;;6.10;2.50;;;;;;;;;;4980299;28;20046;-67
2021/05/01 07:47:11;;;;;;;5.43;3.05;;;;;;;;;;4979073;28;20085;-67
2021/05/01 07:49:41;;;;;;;10.55;2.88;;;;;;;;;;4971806;28;20019;-67
2021/05/01 07:52:07;;;;;;;6.75;2.40;;;;;;;;;;4976678;28;20033;-67
2021/05/01 07:54:38;;;;;;;6.57;2.22;;;;;;;;;;4976922;28;20027;-68
2021/05/01 07:57:04;;;;;;;9.45;1.77;;;;;;;;;;4981759;28;20441;-69
2021/05/01 07:59:30;;;;;;;6.50;1.88;;;;;;;;;;4984635;28;20105;-69
2021/05/01 08:01:56;;;;;;;6.22;2.25;;;;;;;;;;4975824;28;20027;-69
2021/05/01 08:04:22;;;;;;;6.53;2.05;;;;;;;;;;4973644;28;20037;-69
2021/05/01 08:06:49;;;;;;;9.18;3.10;;;;;;;;;;4997145;28;20079;-69
2021/05/01 08:09:15;;;;;;;6.55;2.47;;;;;;;;;;4999559;28;20109;-69
2021/05/01 08:11:40;;;;;;;4.05;2.20;;;;;;;;;;5001107;28;20186;-69
2021/05/01 08:14:06;;;;;;;3.45;2.50;;;;;;;;;;4997635;28;20034;-69
2021/05/01 08:16:34;;;;;;;7.20;2.08;;;;;;;;;;5000637;28;20029;-69
2021/05/01 08:19:01;;;;;;;7.40;2.60;;;;;;;;;;5001728;28;20403;-68
2021/05/01 08:21:28;;;;;;;5.40;2.85;;;;;;;;;;5005490;28;20022;-68
2021/05/01 08:23:54;;;;;;;4.63;2.00;;;;;;;;;;5001875;28;20057;-68
2021/05/01 08:26:21;;;;;;;3.97;2.20;;;;;;;;;;5002108;28;20076;-67
2021/05/01 08:28:47;;;;;;;3.72;2.10;;;;;;;;;;5018972;28;20030;-68
2021/05/01 08:31:13;;;;;;;5.63;3.05;;;;;;;;;;5003081;28;20080;-68
2021/05/01 08:33:39;;;;;;;4.63;2.20;;;;;;;;;;4992035;28;20049;-68
2021/05/01 08:36:05;;;;;;;7.57;2.78;;;;;;;;;;5008576;28;20057;-68
2021/05/01 08:38:36;;;;;;;9.18;2.55;;;;;;;;;;5003118;28;20491;-68
2021/05/01 08:41:03;;;;;;;7.00;2.05;;;;;;;;;;5017773;28;20109;-68
2021/05/01 08:43:29;;;;;;;7.43;1.58;;;;;;;;;;5019231;28;20460;-68
2021/05/01 08:45:55;;;;;;;4.80;1.30;;;;;;;;;;5000750;28;20037;-68
2021/05/01 08:48:24;;;;;;;3.63;1.85;;;;;;;;;;5000647;28;20391;-68
2021/05/01 08:51:03;;;;;;;9.05;2.10;;;;;;;;;;4996957;28;20025;-68
2021/05/01 08:53:30;;;;;;;4.23;2.10;;;;;;;;;;4993064;28;20345;-68
2021/05/01 08:55:56;;;;;;;5.72;2.17;;;;;;;;;;4995749;28;20026;-68
2021/05/01 08:58:22;;;;;;;6.82;1.85;;;;;;;;;;4998602;28;20104;-68
2021/05/01 09:00:51;;;;;;;5.07;1.92;;;;;;;;;;4996524;28;20042;-68
2021/05/01 09:03:22;;;;;;;4.28;1.98;;;;;;;;;;4995770;28;20054;-68
2021/05/01 09:05:48;;;;;;;5.03;1.80;;;;;;;;;;5005790;28;20026;-73
2021/05/01 09:08:16;;;;;;;5.72;1.90;;;;;;;;;;5002257;28;20072;-69
2021/05/01 09:10:49;;;;;;;4.95;1.60;;;;;;;;;;5008324;28;20060;-69
2021/05/01 09:13:21;;;;;;;4.18;1.58;;;;;;;;;;5012842;28;20093;-69
2021/05/01 09:15:56;;;;;;;3.25;1.70;;;;;;;;;;5018716;28;20076;-68
2021/05/01 09:18:23;;;;;;;5.20;2.40;;;;;;;;;;5005273;28;20415;-69
2021/05/01 09:20:49;;;;;;;2.08;1.27;;;;;;;;;;5003326;28;20029;-68
2021/05/01 09:23:15;;;;;;;4.28;1.73;;;;;;;;;;4999952;28;20018;-68
2021/05/01 09:25:54;;;;;;;5.72;2.10;;;;;;;;;;4995550;28;20022;-68
2021/05/01 09:28:21;;;;;;;4.18;2.25;;;;;;;;;;4996991;28;20479;-68
2021/05/01 09:31:05;;;;;;;5.93;2.28;;;;;;;;;;5005528;28;20484;-68
2021/05/01 09:33:32;;;;;;;4.97;2.10;;;;;;;;;;4999680;28;20072;-68
2021/05/01 09:35:58;;;;;;;4.18;1.70;;;;;;;;;;5007782;28;20095;-68
2021/05/01 09:38:24;;;;;;;9.25;1.48;;;;;;;;;;5002076;28;20504;-68
2021/05/01 09:40:51;;;;;;;7.53;2.28;;;;;;;;;;5004475;28;20100;-68
2021/05/01 09:43:17;;;;;;;4.32;1.63;;;;;;;;;;5013030;28;20051;-69
2021/05/01 09:45:44;;;;;;;3.70;1.27;;;;;;;;;;5005124;28;20034;-68
2021/05/01 09:48:14;;;;;;;3.83;1.60;;;;;;;;;;5001803;28;20025;-68
2021/05/01 09:50:40;;;;;;;7.03;2.22;;;;;;;;;;5003239;28;20017;-68
2021/05/01 09:53:08;;;;;;;2.60;1.67;;;;;;;;;;5010706;28;20021;-69
2021/05/01 09:55:41;;;;;;;4.35;1.80;;;;;;;;;;5011708;28;20022;-69
2021/05/01 09:58:33;;;;;;;2.92;1.55;;;;;;;;;;5007354;28;20116;-69
2021/05/01 10:01:13;;;;;;;7.95;2.05;;;;;;;;;;5005245;28;20120;-69
2021/05/01 10:03:39;;;;;;;3.15;1.90;;;;;;;;;;4994237;28;20018;-69
2021/05/01 10:06:06;;;;;;;5.82;1.83;;;;;;;;;;4995664;28;20046;-69
2021/05/01 10:08:32;;;;;;;4.10;1.35;;;;;;;;;;5009472;28;20510;-69
2021/05/01 10:11:06;;;;;;;6.85;1.45;;;;;;;;;;5005530;28;20033;-69
2021/05/01 10:13:35;;;;;;;6.25;1.50;;;;;;;;;;5005200;28;20037;-70
2021/05/01 10:16:07;;;;;;;5.97;1.70;;;;;;;;;;5003829;28;20522;-69
2021/05/01 10:18:33;;;;;;;4.85;1.35;;;;;;;;;;5005293;28;20030;-70
2021/05/01 10:20:59;;;;;;;3.78;1.45;;;;;;;;;;5006899;28;20101;-70
2021/05/01 10:23:25;;;;;;;4.57;1.20;;;;;;;;;;5006614;28;20490;-69
2021/05/01 10:25:51;;;;;;;3.08;1.17;;;;;;;;;;5001772;28;20109;-69
2021/05/01 10:28:19;;;;;;;5.57;1.38;;;;;;;;;;5002834;28;20599;-69
2021/05/01 10:30:48;;;;;;;4.38;1.30;;;;;;;;;;5001711;28;20557;-69
2021/05/01 10:33:30;;;;;;;4.45;1.30;;;;;;;;;;4995752;28;20436;-69
2021/05/01 10:35:59;;;;;;;3.83;1.10;;;;;;;;;;5009667;28;20101;-69
2021/05/01 10:38:25;;;;;;;2.15;0.95;;;;;;;;;;4997868;28;20037;-69
2021/05/01 10:40:52;;;;;;;4.60;1.15;;;;;;;;;;4998784;28;20476;-69
2021/05/01 10:43:20;;;;;;;4.57;1.58;;;;;;;;;;5001450;28;20129;-69
2021/05/01 10:45:53;;;;;;;3.60;1.10;;;;;;;;;;5010789;28;20025;-69
2021/05/01 10:48:20;;;;;;;5.18;1.52;;;;;;;;;;4997180;28;20042;-69
2021/05/01 10:50:58;;;;;;;3.08;1.15;;;;;;;;;;5006138;28;20053;-68
2021/05/01 10:53:24;;;;;;;6.13;1.13;;;;;;;;;;5005959;28;20109;-69
2021/05/01 10:55:51;;;;;;;6.93;1.35;;;;;;;;;;4993772;28;20026;-67
2021/05/01 10:58:36;;;;;;;1.55;1.15;;;;;;;;;;5007665;28;20030;-66
2021/05/01 11:01:04;;;;;;;3.70;0.95;;;;;;;;;;5002615;28;20076;-69
2021/05/01 11:03:30;;;;;;;2.25;0.90;;;;;;;;;;5007437;28;20018;-68
2021/05/01 11:05:58;;;;;;;2.53;1.02;;;;;;;;;;5007679;28;20098;-68
2021/05/01 11:08:50;;;;;;;4.03;1.20;;;;;;;;;;5004770;28;20057;-67
2021/05/01 11:11:16;;;;;;;2.80;1.10;;;;;;;;;;5010600;28;20030;-69
2021/05/01 11:13:44;;;;;;;3.25;1.10;;;;;;;;;;5010704;28;20490;-69
2021/05/01 11:16:10;;;;;;;4.97;1.45;;;;;;;;;;5006684;28;20038;-67
2021/05/01 11:18:38;;;;;;;2.63;1.48;;;;;;;;;;5007390;28;20030;-68
2021/05/01 11:21:06;;;;;;;2.35;1.10;;;;;;;;;;5001893;28;20022;-69
2021/05/01 11:23:35;;;;;;;3.17;1.60;;;;;;;;;;5000965;28;20027;-69
2021/05/01 11:26:01;;;;;;;4.03;1.45;;;;;;;;;;5007418;28;20026;-68
2021/05/01 11:28:27;;;;;;;3.28;1.38;;;;;;;;;;5007400;28;20022;-68
2021/05/01 11:30:54;;;;;;;2.22;0.85;;;;;;;;;;5000013;28;20365;-69
2021/05/01 11:33:21;;;;;;;3.95;1.02;;;;;;;;;;5006099;28;20555;-68
2021/05/01 11:35:48;;;;;;;4.13;0.95;;;;;;;;;;5002955;28;20034;-69
2021/05/01 11:38:17;;;;;;;2.78;0.80;;;;;;;;;;5002549;28;20031;-69
2021/05/01 11:40:46;;;;;;;2.60;0.90;;;;;;;;;;5004798;28;20075;-67
2021/05/01 11:43:13;;;;;;;2.38;0.82;;;;;;;;;;5001198;28;20423;-67
2021/05/01 11:45:45;;;;;;;4.00;0.90;;;;;;;;;;5008118;28;20014;-67
2021/05/01 11:48:13;;;;;;;3.25;0.85;;;;;;;;;;5002588;28;20030;-67
2021/05/01 11:50:41;;;;;;;3.35;1.10;;;;;;;;;;5002797;28;20037;-67
2021/05/01 11:53:26;;;;;;;4.30;1.30;;;;;;;;;;5003768;28;20034;-67
2021/05/01 11:56:17;;;;;;;3.30;1.10;;;;;;;;;;5003237;28;20033;-67
2021/05/01 11:58:43;;;;;;;1.20;0.68;;;;;;;;;;5006347;28;20143;-67
2021/05/01 12:01:23;;;;;;;3.08;1.05;;;;;;;;;;5003754;28;20029;-67
2021/05/01 12:04:03;;;;;;;3.65;0.80;;;;;;;;;;5007525;28;20097;-67
2021/05/01 12:06:28;;;;;;;2.15;0.80;;;;;;;;;;5009085;28;20088;-67
2021/05/01 12:08:57;;;;;;;1.92;0.90;;;;;;;;;;5013345;28;20025;-68
2021/05/01 12:11:23;;;;;;;2.92;1.23;;;;;;;;;;5000804;28;20427;-65
2021/05/01 12:13:50;;;;;;;1.95;0.68;;;;;;;;;;5011994;28;20487;-68
2021/05/01 12:16:17;;;;;;;4.70;1.10;;;;;;;;;;5013928;28;20026;-68
2021/05/01 12:18:46;;;;;;;2.88;1.00;;;;;;;;;;4994432;28;20117;-68
2021/05/01 12:21:23;;;;;;;3.53;0.95;;;;;;;;;;5004538;28;20023;-68
2021/05/01 12:23:52;;;;;;;2.17;0.90;;;;;;;;;;4997198;28;20419;-68
2021/05/01 12:26:44;;;;;;;2.42;0.90;;;;;;;;;;4998473;28;20888;-68
2021/05/01 12:29:23;;;;;;;1.40;0.60;;;;;;;;;;5004014;28;20052;-68
2021/05/01 12:31:50;;;;;;;3.92;0.80;;;;;;;;;;4995709;28;20038;-68
2021/05/01 12:34:16;;;;;;;1.83;0.93;;;;;;;;;;4992543;28;20065;-68
2021/05/01 12:36:43;;;;;;;3.83;0.80;;;;;;;;;;4992479;28;20026;-68
2021/05/01 12:39:10;;;;;;;2.47;0.70;;;;;;;;;;4992828;28;20484;-68
2021/05/01 12:41:38;;;;;;;2.58;1.00;;;;;;;;;;4996155;28;20110;-69
2021/05/01 12:44:04;;;;;;;2.20;0.63;;;;;;;;;;4991554;28;20030;-69
2021/05/01 12:46:41;;;;;;;2.85;1.17;;;;;;;;;;5000931;28;20114;-69
2021/05/01 12:49:18;;;;;;;1.98;1.10;;;;;;;;;;4998173;28;20105;-69
2021/05/01 12:51:54;;;;;;;3.65;1.52;;;;;;;;;;4997488;28;20459;-67
2021/05/01 12:54:23;;;;;;;2.65;0.80;;;;;;;;;;4997415;28;20030;-70
2021/05/01 12:56:56;;;;;;;5.70;1.05;;;;;;;;;;5001329;28;20439;-70
2021/05/01 12:59:35;;;;;;;2.92;1.25;;;;;;;;;;5010366;28;20046;-70
2021/05/01 13:02:01;;;;;;;3.17;0.90;;;;;;;;;;5005064;28;20053;-70
2021/05/01 13:04:29;;;;;;;7.50;1.35;;;;;;;;;;5008562;28;20022;-70
2021/05/01 13:06:54;;;;;;;3.63;1.65;;;;;;;;;;5004329;28;20022;-70
2021/05/01 13:09:21;;;;;;;4.82;1.40;;;;;;;;;;5006428;28;20033;-70
2021/05/01 13:12:07;;;;;;;3.15;1.42;;;;;;;;;;4998889;28;20084;-70
2021/05/01 13:14:34;;;;;;;4.05;1.10;;;;;;;;;;5007387;28;20037;-70
2021/05/01 13:17:03;;;;;;;4.95;1.67;;;;;;;;;;5006951;28;20022;-70
2021/05/01 13:19:30;;;;;;;2.92;1.05;;;;;;;;;;5006079;28;20116;-70
2021/05/01 13:22:04;;;;;;;3.10;1.45;;;;;;;;;;5005855;28;20053;-70
2021/05/01 13:24:31;;;;;;;2.95;1.33;;;;;;;;;;4997214;28;20097;-70
2021/05/01 13:26:58;;;;;;;3.00;1.17;;;;;;;;;;5003641;28;20036;-70
2021/05/01 13:29:32;;;;;;;2.55;1.10;;;;;;;;;;4997827;28;20101;-70
2021/05/01 13:31:58;;;;;;;4.55;1.27;;;;;;;;;;5003316;28;20040;-70
2021/05/01 13:34:24;;;;;;;2.90;1.60;;;;;;;;;;4998299;28;20041;-70
2021/05/01 13:36:51;;;;;;;2.60;1.40;;;;;;;;;;5002748;28;20077;-70
2021/05/01 13:39:37;;;;;;;2.58;1.50;;;;;;;;;;5002340;28;20037;-70
2021/05/01 13:42:03;;;;;;;2.13;1.20;;;;;;;;;;5000887;28;20211;-70
2021/05/01 13:44:45;;;;;;;4.97;1.70;;;;;;;;;;5002319;28;20117;-70
2021/05/01 13:47:28;;;;;;;3.08;1.52;;;;;;;;;;4998895;28;20027;-70
2021/05/01 13:50:05;;;;;;;5.22;1.38;;;;;;;;;;5000818;28;20026;-71
2021/05/01 13:52:32;;;;;;;3.45;1.20;;;;;;;;;;5001356;28;20026;-69
2021/05/01 13:55:17;;;;;;;3.00;1.00;;;;;;;;;;4996199;28;20452;-69
2021/05/01 13:57:44;;;;;;;3.25;1.10;;;;;;;;;;4998484;28;20061;-70
2021/05/01 14:00:11;;;;;;;3.30;1.13;;;;;;;;;;5003573;28;20373;-69
2021/05/01 14:02:37;;;;;;;3.13;1.40;;;;;;;;;;5001971;28;20022;-69
2021/05/01 14:05:05;;;;;;;2.58;0.82;;;;;;;;;;5002279;28;20038;-71
2021/05/01 14:07:31;;;;;;;2.25;1.27;;;;;;;;;;4995909;28;20030;-72
2021/05/01 14:09:57;;;;;;;5.25;2.00;;;;;;;;;;5000580;28;20369;-71
2021/05/01 14:12:28;;;;;;;4.03;1.42;;;;;;;;;;5007209;28;20961;-70
2021/05/01 14:14:54;;;;;;;1.55;1.10;;;;;;;;;;5001851;28;20037;-70
2021/05/01 14:17:23;;;;;;;2.55;1.30;;;;;;;;;;5004222;28;20044;-70
2021/05/01 14:19:53;;;;;;;4.95;2.25;;;;;;;;;;4999299;28;20383;-71
2021/05/01 14:22:19;;;;;;;4.25;1.70;;;;;;;;;;5001891;28;20049;-70
2021/05/01 14:24:45;;;;;;;5.00;1.67;;;;;;;;;;4997969;28;20384;-72
2021/05/01 14:27:14;;;;;;;8.57;2.97;;;;;;;;;;5000760;28;20026;-70
2021/05/01 14:29:53;;;;;;;5.77;1.90;;;;;;;;;;4997910;28;20018;-71
2021/05/01 14:32:19;;;;;;;3.75;1.95;;;;;;;;;;4996440;28;20275;-71
2021/05/01 14:34:55;;;;;;;4.50;2.10;;;;;;;;;;5003171;28;20117;-70
2021/05/01 14:37:22;;;;;;;4.28;2.63;;;;;;;;;;4998324;28;20072;-70
2021/05/01 14:39:48;;;;;;;6.15;2.55;;;;;;;;;;5001226;28;20049;-70